createdAt,value
2019-02-10T00:01:07.032Z,35.84
2019-02-10T00:06:07.012Z,36.08
2019-02-10T00:11:07.002Z,35.63
2019-02-10T00:16:06.992Z,35.92
2019-02-10T00:21:07.064Z,35.83
2019-02-10T00:26:07.303Z,35.98
2019-02-10T00:31:07.013Z,36.07
2019-02-10T00:36:07.448Z,35.74
2019-02-10T00:41:13.313Z,35.91
2019-02-10T00:46:07.480Z,35.76
2019-02-10T00:51:07.518Z,35.86
2019-02-10T00:56:07.545Z,36.08
2019-02-10T01:01:07.050Z,35.88
2019-02-10T01:06:07.357Z,35.96
2019-02-10T01:11:07.050Z,35.72
2019-02-10T01:16:07.006Z,35.97
2019-02-10T01:21:07.065Z,35.96
2019-02-10T01:26:07.072Z,35.59
2019-02-10T01:31:07.504Z,35.94
2019-02-10T01:36:07.065Z,36.13
2019-02-10T01:41:07.077Z,35.76
2019-02-10T01:46:07.419Z,35.71
2019-02-10T01:51:07.442Z,36.07
2019-02-10T01:56:07.081Z,36.01
2019-02-10T02:01:07.525Z,35.80
2019-02-10T02:06:07.016Z,35.90
2019-02-10T02:11:07.388Z,36.03
2019-02-10T02:16:07.091Z,36.25
2019-02-10T02:21:07.089Z,36.00
2019-02-10T02:26:07.034Z,36.14
2019-02-10T02:31:07.012Z,36.07
2019-02-10T02:36:07.091Z,36.17
2019-02-10T02:41:07.101Z,35.76
2019-02-10T02:46:07.192Z,36.20
2019-02-10T02:51:07.418Z,35.99
2019-02-10T02:56:07.432Z,36.08
2019-02-10T03:01:07.476Z,36.19
2019-02-10T03:06:07.517Z,35.98
2019-02-10T03:11:07.071Z,36.22
2019-02-10T03:16:07.107Z,36.00
2019-02-10T03:21:07.096Z,35.80
2019-02-10T03:26:07.384Z,35.97
2019-02-10T03:31:07.417Z,35.82
2019-02-10T03:36:07.091Z,36.24
2019-02-10T03:41:07.113Z,36.12
2019-02-10T03:46:07.107Z,36.04
2019-02-10T03:51:07.098Z,36.44
2019-02-10T03:56:07.120Z,35.84
2019-02-10T04:01:07.086Z,36.04
2019-02-10T04:06:07.204Z,36.03
2019-02-10T04:11:07.143Z,36.12
2019-02-10T04:16:07.394Z,35.83
2019-02-10T04:21:07.139Z,36.06
2019-02-10T04:26:07.129Z,35.75
2019-02-10T04:31:07.558Z,36.19
2019-02-10T04:36:07.133Z,36.05
2019-02-10T04:41:07.108Z,35.83
2019-02-10T04:46:07.127Z,36.09
2019-02-10T04:51:07.093Z,35.97
2019-02-10T04:56:07.444Z,36.23
2019-02-10T05:01:07.148Z,36.09
2019-02-10T05:06:07.142Z,36.25
2019-02-10T05:11:07.423Z,36.48
2019-02-10T05:16:07.110Z,35.96
2019-02-10T05:21:07.149Z,35.81
2019-02-10T05:26:07.473Z,35.73
2019-02-10T05:31:07.180Z,36.29
2019-02-10T05:36:07.157Z,35.82
2019-02-10T05:41:09.483Z,35.78
2019-02-10T05:46:07.123Z,36.03
2019-02-10T05:51:07.190Z,36.00
2019-02-10T05:56:07.501Z,35.75
2019-02-10T06:01:07.168Z,35.70
2019-02-10T06:06:07.159Z,36.23
2019-02-10T06:11:07.130Z,36.28
2019-02-10T06:16:07.187Z,35.69
2019-02-10T06:21:07.405Z,36.22
2019-02-10T06:26:07.120Z,35.85
2019-02-10T06:31:07.186Z,35.74
2019-02-10T06:36:07.173Z,36.16
2019-02-10T06:41:07.566Z,35.77
2019-02-10T06:46:07.144Z,36.85
2019-02-10T06:51:07.711Z,35.76
2019-02-10T06:56:07.187Z,35.57
2019-02-10T07:01:07.210Z,35.97
2019-02-10T07:06:07.704Z,35.75
2019-02-10T07:11:07.514Z,36.02
2019-02-10T07:16:07.920Z,36.15
2019-02-10T07:21:08.564Z,35.98
2019-02-10T07:26:07.209Z,36.72
2019-02-10T07:31:07.177Z,35.76
2019-02-10T07:36:07.497Z,35.80
2019-02-10T07:41:07.736Z,36.38
2019-02-10T07:46:07.219Z,36.27
2019-02-10T07:51:07.877Z,35.78
2019-02-10T07:56:07.839Z,36.32
2019-02-10T08:01:07.621Z,35.64
2019-02-10T08:06:07.910Z,35.88
2019-02-10T08:11:07.227Z,36.24
2019-02-10T08:16:08.807Z,36.46
2019-02-10T08:21:07.245Z,36.32
2019-02-10T08:26:07.859Z,35.89
2019-02-10T08:31:07.951Z,35.94
2019-02-10T08:36:08.247Z,36.00
2019-02-10T08:41:07.198Z,35.93
2019-02-10T08:46:07.349Z,36.30
2019-02-10T08:51:07.236Z,35.70
2019-02-10T08:56:07.205Z,35.94
2019-02-10T09:01:07.604Z,36.60
2019-02-10T09:06:07.161Z,35.69
2019-02-10T09:11:07.216Z,36.09
2019-02-10T09:16:07.213Z,35.79
2019-02-10T09:21:07.239Z,35.97
2019-02-10T09:26:07.231Z,35.79
2019-02-10T09:31:07.255Z,35.61
2019-02-10T09:36:07.546Z,35.93
2019-02-10T09:41:07.291Z,35.92
2019-02-10T09:46:07.196Z,35.92
2019-02-10T09:51:07.239Z,35.84
2019-02-10T09:56:07.526Z,35.54
2019-02-10T10:01:07.228Z,36.02
2019-02-10T10:06:07.222Z,35.58
2019-02-10T10:11:07.254Z,36.17
2019-02-10T10:16:07.284Z,35.66
2019-02-10T10:21:07.397Z,36.08
2019-02-10T10:26:07.193Z,35.80
2019-02-10T10:31:07.262Z,35.64
2019-02-10T10:36:07.294Z,36.10
2019-02-10T10:41:07.308Z,35.77
2019-02-10T10:46:07.358Z,36.04
2019-02-10T10:51:07.242Z,36.13
2019-02-10T10:56:07.255Z,35.87
2019-02-10T11:01:07.270Z,35.80
2019-02-10T11:06:07.395Z,35.75
2019-02-10T11:11:07.302Z,35.80
2019-02-10T11:16:07.318Z,35.73
2019-02-10T11:21:07.262Z,35.99
2019-02-10T11:26:07.463Z,36.26
2019-02-10T11:31:07.275Z,36.31
2019-02-10T11:36:07.900Z,36.00
2019-02-10T11:41:07.282Z,36.00
2019-02-10T11:46:07.272Z,36.06
2019-02-10T11:51:07.466Z,36.54
2019-02-10T11:56:07.300Z,36.67
2019-02-10T12:01:07.288Z,36.72
2019-02-10T12:06:07.322Z,36.81
2019-02-10T12:11:07.252Z,36.45
2019-02-10T12:16:07.358Z,36.45
2019-02-10T12:21:07.285Z,36.82
2019-02-10T12:26:07.311Z,36.58
2019-02-10T12:31:07.319Z,36.77
2019-02-10T12:36:07.328Z,37.07
2019-02-10T12:41:07.467Z,37.01
2019-02-10T12:46:07.308Z,37.36
2019-02-10T12:51:07.313Z,37.08
2019-02-10T12:56:07.301Z,37.35
2019-02-10T13:01:07.342Z,37.41
2019-02-10T13:06:07.308Z,37.41
2019-02-10T13:11:07.312Z,37.36
2019-02-10T13:16:07.336Z,37.27
2019-02-10T13:21:07.352Z,37.57
2019-02-10T13:26:07.312Z,37.49
2019-02-10T13:31:07.345Z,37.42
2019-02-10T13:36:07.359Z,37.80
2019-02-10T13:41:07.622Z,37.48
2019-02-10T13:46:07.286Z,37.81
2019-02-10T13:51:07.350Z,37.60
2019-02-10T13:56:07.567Z,37.82
2019-02-10T14:01:07.311Z,37.87
2019-02-10T14:06:07.587Z,37.56
2019-02-10T14:11:07.367Z,37.66
2019-02-10T14:16:07.368Z,37.67
2019-02-10T14:21:07.319Z,38.29
2019-02-10T14:26:07.359Z,37.68
2019-02-10T14:31:07.634Z,37.82
2019-02-10T14:36:07.512Z,37.88
2019-02-10T14:41:07.299Z,37.81
2019-02-10T14:46:07.390Z,37.79
2019-02-10T14:51:07.342Z,37.97
2019-02-10T14:56:07.349Z,38.30
2019-02-10T15:01:07.705Z,38.03
2019-02-10T15:06:07.326Z,38.30
2019-02-10T15:11:07.364Z,37.95
2019-02-10T15:16:07.319Z,37.97
2019-02-10T15:21:07.380Z,37.93
2019-02-10T15:26:07.380Z,38.11
2019-02-10T15:31:07.400Z,38.15
2019-02-10T15:36:07.388Z,38.31
2019-02-10T15:41:07.401Z,38.38
2019-02-10T15:46:07.334Z,38.36
2019-02-10T15:51:07.760Z,38.39
2019-02-10T15:56:07.349Z,37.99
2019-02-10T16:01:07.669Z,37.96
2019-02-10T16:06:07.873Z,38.31
2019-02-10T16:11:07.390Z,38.11
2019-02-10T16:16:07.383Z,38.66
2019-02-10T16:21:07.671Z,38.18
2019-02-10T16:26:07.446Z,38.61
2019-02-10T16:31:07.398Z,38.34
2019-02-10T16:36:07.845Z,38.38
2019-02-10T16:41:07.371Z,38.51
2019-02-10T16:46:07.574Z,38.63
2019-02-10T16:51:07.377Z,38.48
2019-02-10T16:56:07.414Z,39.04
2019-02-10T17:01:07.376Z,38.29
2019-02-10T17:06:07.841Z,38.14
2019-02-10T17:11:14.219Z,38.36
2019-02-10T17:16:07.789Z,38.37
2019-02-10T17:21:07.815Z,38.51
2019-02-10T17:26:07.399Z,38.61
2019-02-10T17:31:07.723Z,38.40
2019-02-10T17:36:07.431Z,38.64
2019-02-10T17:41:07.475Z,38.42
2019-02-10T17:46:07.386Z,38.30
2019-02-10T17:51:07.429Z,38.26
2019-02-10T17:56:07.822Z,38.68
2019-02-10T18:01:07.497Z,38.68
2019-02-10T18:06:07.866Z,38.63
2019-02-10T18:11:07.433Z,38.36
2019-02-10T18:16:07.479Z,38.96
2019-02-10T18:21:07.399Z,38.71
2019-02-10T18:26:07.483Z,39.21
2019-02-10T18:31:07.421Z,38.58
2019-02-10T18:36:07.453Z,38.95
2019-02-10T18:41:07.913Z,39.12
2019-02-10T18:46:07.457Z,38.97
2019-02-10T18:51:07.761Z,38.49
2019-02-10T18:56:07.422Z,38.87
2019-02-10T19:01:07.454Z,38.71
